Time;durP1;ratioP1;P1;durP2;ratioP2;P2;SDS_P1;SDS_P2;PMS_P1;PMS_P2;Temp;Humidity;BMP_temperature;BMP_pressure;BME280_temperature;BME280_humidity;BME280_pressure;Samples;Min_cycle;Max_cycle;Signal;HPM_P1;HPM_P2
2023/07/27 00:01:47;;;;;;;3.40;2.47;;;;;16.90;98329.00;;;;5093791;28;20071;-66
2023/07/27 00:04:14;;;;;;;4.25;2.35;;;;;17.00;98317.00;;;;5095684;28;20046;-65
2023/07/27 00:06:41;;;;;;;2.58;2.38;;;;;17.10;98317.00;;;;5097030;28;20058;-65
2023/07/27 00:09:07;;;;;;;3.40;2.75;;;;;17.20;98321.00;;;;5103020;28;20040;-66
2023/07/27 00:11:34;;;;;;;3.33;2.35;;;;;17.20;98320.00;;;;5102062;28;20047;-66
2023/07/27 00:14:00;;;;;;;4.15;2.17;;;;;17.20;98322.00;;;;5101602;28;20067;-65
2023/07/27 00:16:27;;;;;;;2.45;2.25;;;;;17.20;98326.00;;;;5101574;28;20044;-65
2023/07/27 00:18:53;;;;;;;4.05;2.20;;;;;17.30;98327.00;;;;5100482;28;20047;-65
2023/07/27 00:21:21;;;;;;;4.88;2.35;;;;;17.20;98318.00;;;;5102617;28;20052;-65
2023/07/27 00:23:48;;;;;;;3.95;2.38;;;;;17.20;98315.00;;;;5101721;28;20044;-65
2023/07/27 00:26:14;;;;;;;3.78;2.65;;;;;17.20;98309.00;;;;5104761;28;20095;-65
2023/07/27 00:28:41;;;;;;;4.03;2.50;;;;;17.30;98305.00;;;;5107063;28;20113;-64
2023/07/27 00:31:08;;;;;;;2.85;2.20;;;;;17.30;98308.00;;;;5103979;28;20071;-65
2023/07/27 00:33:35;;;;;;;3.65;2.20;;;;;17.30;98303.00;;;;5100364;28;20044;-65
2023/07/27 00:36:01;;;;;;;2.30;1.92;;;;;17.30;98299.00;;;;5100100;28;20492;-65
2023/07/27 00:38:28;;;;;;;3.63;2.33;;;;;17.30;98289.00;;;;5095386;28;20637;-65
2023/07/27 00:40:55;;;;;;;2.40;2.03;;;;;17.30;98297.00;;;;5093322;28;20114;-65
2023/07/27 00:43:21;;;;;;;2.83;2.08;;;;;17.30;98292.00;;;;5094231;28;20067;-64
2023/07/27 00:45:49;;;;;;;4.90;2.70;;;;;17.40;98291.00;;;;5093856;28;20054;-64
2023/07/27 00:48:17;;;;;;;3.25;2.30;;;;;17.40;98287.00;;;;5095992;28;20044;-64
2023/07/27 00:50:45;;;;;;;2.22;2.03;;;;;17.40;98278.00;;;;5095551;28;20135;-64
2023/07/27 00:53:13;;;;;;;2.75;2.40;;;;;17.40;98287.00;;;;5098160;28;20055;-64
2023/07/27 00:55:41;;;;;;;2.10;1.90;;;;;17.40;98280.00;;;;5094757;28;20162;-65
2023/07/27 00:58:09;;;;;;;5.57;2.33;;;;;17.40;98281.00;;;;5096275;28;20488;-65
2023/07/27 01:00:37;;;;;;;3.28;2.15;;;;;17.40;98278.00;;;;5079868;28;20510;-65
2023/07/27 01:03:04;;;;;;;3.17;1.80;;;;;17.50;98264.00;;;;5096802;28;20047;-65
2023/07/27 01:05:32;;;;;;;2.33;2.13;;;;;17.50;98263.00;;;;5095524;28;20115;-65
2023/07/27 01:07:59;;;;;;;3.58;2.40;;;;;17.50;98259.00;;;;5077952;28;20067;-65
2023/07/27 01:10:39;;;;;;;3.15;2.28;;;;;17.50;98250.00;;;;5077927;28;20086;-65
2023/07/27 01:13:20;;;;;;;3.28;2.38;;;;;17.60;98237.00;;;;5093268;28;20048;-65
2023/07/27 01:15:55;;;;;;;2.35;2.03;;;;;17.60;98236.00;;;;5094122;28;20485;-65
2023/07/27 01:18:44;;;;;;;2.50;2.28;;;;;17.60;98240.00;;;;5095427;28;20040;-65
2023/07/27 01:21:19;;;;;;;4.00;2.22;;;;;17.60;98233.00;;;;5092558;28;20044;-65
2023/07/27 01:24:10;;;;;;;3.60;2.58;;;;;17.70;98234.00;;;;5092397;28;20054;-66
2023/07/27 01:27:01;;;;;;;3.40;2.15;;;;;17.70;98229.00;;;;5093493;28;20044;-66
2023/07/27 01:29:44;;;;;;;3.05;2.22;;;;;17.60;98235.00;;;;5092107;28;20077;-65
2023/07/27 01:32:13;;;;;;;4.67;2.40;;;;;17.60;98223.00;;;;5092159;28;20070;-66
2023/07/27 01:34:43;;;;;;;3.78;2.00;;;;;17.70;98229.00;;;;5092055;28;20326;-65
2023/07/27 01:37:13;;;;;;;4.20;2.33;;;;;17.70;98224.00;;;;5091957;28;20059;-65
2023/07/27 01:39:42;;;;;;;4.65;2.35;;;;;17.70;98221.00;;;;5091954;28;20151;-65
2023/07/27 01:42:13;;;;;;;2.47;2.00;;;;;17.70;98214.00;;;;5091465;28;20045;-65
2023/07/27 01:44:40;;;;;;;5.05;2.50;;;;;17.70;98208.00;;;;5092531;28;20059;-65
2023/07/27 01:47:08;;;;;;;3.13;2.05;;;;;17.70;98210.00;;;;5091429;28;20052;-65
2023/07/27 01:49:38;;;;;;;3.45;1.80;;;;;17.70;98206.00;;;;5092533;28;20032;-66
2023/07/27 01:52:06;;;;;;;3.30;2.00;;;;;17.80;98213.00;;;;5091602;28;20043;-66
2023/07/27 01:54:34;;;;;;;3.05;1.90;;;;;17.80;98203.00;;;;5074812;28;20048;-66
2023/07/27 01:57:02;;;;;;;4.18;2.25;;;;;17.80;98205.00;;;;5092198;28;20070;-66
2023/07/27 01:59:30;;;;;;;2.83;2.50;;;;;17.80;98195.00;;;;5091257;28;20124;-65
2023/07/27 02:01:57;;;;;;;2.25;2.05;;;;;17.90;98195.00;;;;5091872;28;20504;-65
2023/07/27 02:04:23;;;;;;;5.88;2.58;;;;;17.90;98193.00;;;;5092093;28;20056;-66
2023/07/27 02:06:50;;;;;;;3.35;2.45;;;;;17.90;98191.00;;;;5092506;28;20493;-66
2023/07/27 02:09:18;;;;;;;3.53;2.10;;;;;18.00;98178.00;;;;5092440;28;20408;-65
2023/07/27 02:11:46;;;;;;;3.78;2.30;;;;;18.00;98185.00;;;;5091418;28;20048;-65
2023/07/27 02:15:05;;;;;;;3.03;1.92;;;;;18.00;98180.00;;;;5091179;28;20094;-65
2023/07/27 02:17:39;;;;;;;3.00;2.65;;;;;18.00;98175.00;;;;5047211;28;20500;-65
2023/07/27 02:20:12;;;;;;;3.10;1.92;;;;;18.00;98174.00;;;;5091117;28;20055;-65
2023/07/27 02:22:41;;;;;;;3.25;1.95;;;;;18.00;98169.00;;;;5092716;28;20455;-65
2023/07/27 02:25:08;;;;;;;3.00;2.15;;;;;18.10;98171.00;;;;5093375;28;20048;-66
2023/07/27 02:27:36;;;;;;;3.63;2.30;;;;;18.10;98164.00;;;;5095016;28;20082;-66
2023/07/27 02:30:03;;;;;;;4.68;2.13;;;;;18.10;98169.00;;;;5079044;28;20040;-66
2023/07/27 02:32:30;;;;;;;2.83;2.10;;;;;18.10;98164.00;;;;5095571;28;20133;-66
2023/07/27 02:34:57;;;;;;;4.05;2.30;;;;;18.10;98157.00;;;;5097081;28;20123;-65
2023/07/27 02:37:23;;;;;;;2.83;2.20;;;;;18.10;98154.00;;;;5096592;28;20086;-66
2023/07/27 02:39:50;;;;;;;3.55;2.55;;;;;17.90;98162.00;;;;5097300;28;20138;-66
2023/07/27 02:42:17;;;;;;;5.30;2.13;;;;;17.80;98152.00;;;;5096476;28;20055;-66
2023/07/27 02:44:44;;;;;;;2.28;1.90;;;;;17.70;98144.00;;;;5095082;28;20569;-66
2023/07/27 02:47:10;;;;;;;3.65;2.47;;;;;17.70;98150.00;;;;5094790;28;20052;-66
2023/07/27 02:49:37;;;;;;;3.50;2.30;;;;;17.70;98156.00;;;;5094952;28;20408;-66
2023/07/27 02:52:04;;;;;;;3.92;2.40;;;;;17.70;98150.00;;;;5094712;28;20416;-66
2023/07/27 02:54:30;;;;;;;2.95;1.90;;;;;17.70;98155.00;;;;5094554;28;20116;-66
2023/07/27 02:56:58;;;;;;;2.63;2.42;;;;;17.70;98148.00;;;;5094290;28;20131;-66
2023/07/27 02:59:32;;;;;;;;;;;;;17.80;98155.00;;;;5094673;28;20135;-66
2023/07/27 03:01:59;;;;;;;5.20;1.98;;;;;17.80;98144.00;;;;5093869;28;20384;-66
2023/07/27 03:04:31;;;;;;;2.97;2.33;;;;;17.80;98149.00;;;;5093775;28;20639;-66
2023/07/27 03:06:57;;;;;;;3.15;2.25;;;;;17.80;98156.00;;;;5094023;28;20483;-66
2023/07/27 03:09:25;;;;;;;5.05;2.17;;;;;17.90;98150.00;;;;5093979;28;20040;-66
2023/07/27 03:11:51;;;;;;;2.40;2.20;;;;;17.90;98149.00;;;;5095259;28;20086;-66
2023/07/27 03:14:20;;;;;;;2.58;2.33;;;;;17.90;98147.00;;;;5094385;28;20486;-65
2023/07/27 03:16:46;;;;;;;3.75;2.60;;;;;17.90;98145.00;;;;5094082;28;20135;-66
2023/07/27 03:19:13;;;;;;;4.10;2.40;;;;;17.90;98145.00;;;;5093977;28;20074;-65
2023/07/27 03:21:41;;;;;;;4.13;2.33;;;;;17.90;98145.00;;;;5094005;28;20389;-65
2023/07/27 03:24:08;;;;;;;3.90;2.30;;;;;17.90;98143.00;;;;5094111;28;20040;-65
2023/07/27 03:26:36;;;;;;;2.92;2.38;;;;;17.90;98151.00;;;;5093907;28;20070;-65
2023/07/27 03:29:03;;;;;;;3.78;2.22;;;;;17.90;98138.00;;;;5095376;28;20068;-65
2023/07/27 03:31:30;;;;;;;2.53;2.00;;;;;17.90;98147.00;;;;5095373;28;20040;-65
2023/07/27 03:33:56;;;;;;;4.90;2.72;;;;;17.90;98143.00;;;;5093769;28;20067;-65
2023/07/27 03:36:23;;;;;;;4.80;2.53;;;;;17.90;98138.00;;;;5092933;28;20127;-66
2023/07/27 03:38:50;;;;;;;2.80;2.50;;;;;17.90;98144.00;;;;5095892;28;20040;-65
2023/07/27 03:41:17;;;;;;;10.52;8.38;;;;;17.80;98127.00;;;;5095386;28;20097;-65
2023/07/27 03:43:43;;;;;;;7.75;5.72;;;;;17.80;98133.00;;;;5094525;28;20071;-64
2023/07/27 03:46:10;;;;;;;9.05;6.47;;;;;17.80;98132.00;;;;5093448;28;20401;-65
2023/07/27 03:48:37;;;;;;;8.10;5.78;;;;;17.70;98127.00;;;;5093194;28;20056;-66
2023/07/27 03:51:04;;;;;;;8.73;5.30;;;;;17.80;98123.00;;;;5076361;28;20074;-66
2023/07/27 03:53:30;;;;;;;6.32;3.88;;;;;17.80;98123.00;;;;5094454;28;20078;-65
2023/07/27 03:55:57;;;;;;;5.70;2.80;;;;;17.80;98127.00;;;;5094274;28;20135;-63
2023/07/27 03:58:24;;;;;;;2.78;2.20;;;;;17.90;98124.00;;;;5093724;28;20531;-65
2023/07/27 04:00:51;;;;;;;3.00;2.70;;;;;17.80;98127.00;;;;5095174;28;20044;-65
2023/07/27 04:03:17;;;;;;;3.75;2.38;;;;;17.80;98125.00;;;;5096365;28;20089;-65
2023/07/27 04:05:44;;;;;;;2.72;2.53;;;;;17.80;98119.00;;;;5095950;28;20124;-64
2023/07/27 04:08:11;;;;;;;2.55;2.20;;;;;17.90;98125.00;;;;5096745;28;20584;-64
2023/07/27 04:10:39;;;;;;;4.90;2.47;;;;;17.90;98119.00;;;;5096635;28;20036;-65
2023/07/27 04:13:06;;;;;;;3.00;2.70;;;;;17.90;98116.00;;;;5095703;28;20044;-65
2023/07/27 04:15:33;;;;;;;5.75;2.63;;;;;17.90;98104.00;;;;5097856;28;20117;-65
2023/07/27 04:18:00;;;;;;;4.30;2.72;;;;;17.90;98103.00;;;;5095327;28;20048;-65
2023/07/27 04:20:26;;;;;;;4.53;2.67;;;;;18.00;98093.00;;;;5097861;28;20072;-65
2023/07/27 04:22:53;;;;;;;6.03;3.83;;;;;18.00;98098.00;;;;5096481;28;20142;-65
2023/07/27 04:25:19;;;;;;;5.38;3.55;;;;;17.90;98099.00;;;;5094917;28;20138;-65
2023/07/27 04:27:46;;;;;;;4.00;3.22;;;;;17.80;98094.00;;;;5095015;28;20044;-65
2023/07/27 04:30:13;;;;;;;4.72;2.75;;;;;17.70;98097.00;;;;5096731;28;20040;-64
2023/07/27 04:32:39;;;;;;;10.23;4.40;;;;;17.80;98095.00;;;;5095561;28;20067;-64
2023/07/27 04:35:06;;;;;;;7.00;2.90;;;;;17.90;98101.00;;;;5097459;28;20554;-65
2023/07/27 04:37:33;;;;;;;4.93;2.45;;;;;18.00;98106.00;;;;5095033;28;20059;-65
2023/07/27 04:40:03;;;;;;;5.88;3.45;;;;;18.00;98103.00;;;;5081202;28;20062;-65
2023/07/27 04:42:30;;;;;;;5.90;3.67;;;;;18.00;98105.00;;;;5097959;28;20044;-65
2023/07/27 04:45:00;;;;;;;4.88;3.35;;;;;18.00;98113.00;;;;5105483;28;20071;-65
2023/07/27 04:47:27;;;;;;;6.60;3.22;;;;;18.10;98103.00;;;;5091289;28;20074;-66
2023/07/27 04:49:53;;;;;;;5.82;3.00;;;;;18.10;98101.00;;;;5103652;28;20044;-66
2023/07/27 04:52:20;;;;;;;3.90;2.80;;;;;18.00;98095.00;;;;5108928;28;20051;-65
2023/07/27 04:54:47;;;;;;;5.80;2.78;;;;;18.10;98097.00;;;;5110152;28;20107;-66
2023/07/27 04:57:13;;;;;;;4.25;2.65;;;;;18.00;98095.00;;;;5099733;28;20052;-66
2023/07/27 04:59:40;;;;;;;4.13;2.88;;;;;18.00;98102.00;;;;5095582;28;20040;-66
2023/07/27 05:02:07;;;;;;;3.88;3.22;;;;;18.00;98091.00;;;;5096252;28;20052;-66
2023/07/27 05:04:33;;;;;;;8.43;3.40;;;;;18.00;98088.00;;;;5093703;28;20055;-66
2023/07/27 05:07:00;;;;;;;4.18;2.60;;;;;18.00;98090.00;;;;5095702;28;20044;-66
2023/07/27 05:09:26;;;;;;;4.07;2.85;;;;;18.00;98085.00;;;;5095145;28;20493;-67
2023/07/27 05:11:53;;;;;;;4.90;2.97;;;;;18.00;98080.00;;;;5095445;28;20580;-66
2023/07/27 05:14:20;;;;;;;5.22;3.08;;;;;18.10;98074.00;;;;5094713;28;20105;-66
2023/07/27 05:16:46;;;;;;;3.72;2.65;;;;;18.10;98076.00;;;;5095173;28;20040;-64
2023/07/27 05:19:13;;;;;;;4.30;2.58;;;;;18.20;98076.00;;;;5094693;28;20543;-65
2023/07/27 05:21:40;;;;;;;5.88;2.58;;;;;18.10;98068.00;;;;5096461;28;20074;-65
2023/07/27 05:24:06;;;;;;;4.40;2.40;;;;;18.10;98066.00;;;;5094782;28;20051;-66
2023/07/27 05:26:33;;;;;;;5.90;2.47;;;;;18.20;98073.00;;;;5095080;28;20058;-66
2023/07/27 05:29:00;;;;;;;4.57;2.53;;;;;18.20;98069.00;;;;5092650;28;20075;-66
2023/07/27 05:31:26;;;;;;;3.83;2.40;;;;;18.20;98059.00;;;;5092093;28;20071;-66
2023/07/27 05:33:53;;;;;;;4.45;3.40;;;;;18.30;98060.00;;;;5094648;28;20044;-66
2023/07/27 05:36:20;;;;;;;4.00;2.40;;;;;18.30;98059.00;;;;5105273;28;20044;-65
2023/07/27 05:38:46;;;;;;;7.13;2.97;;;;;18.20;98056.00;;;;5106738;28;20066;-65
2023/07/27 05:41:13;;;;;;;6.30;3.63;;;;;18.10;98060.00;;;;5106620;28;20052;-65
2023/07/27 05:43:39;;;;;;;6.40;2.65;;;;;18.10;98062.00;;;;5108012;28;20055;-65
2023/07/27 05:46:06;;;;;;;3.40;2.58;;;;;18.20;98054.00;;;;5108779;28;20075;-65
2023/07/27 05:48:34;;;;;;;5.45;2.42;;;;;18.20;98051.00;;;;5108800;28;20055;-65
2023/07/27 05:51:01;;;;;;;5.05;3.10;;;;;18.20;98051.00;;;;5108370;28;20040;-65
2023/07/27 05:53:27;;;;;;;3.08;2.67;;;;;18.30;98050.00;;;;5105024;28;20044;-65
2023/07/27 05:55:54;;;;;;;3.38;2.88;;;;;18.20;98043.00;;;;5101865;28;20147;-65
2023/07/27 05:58:21;;;;;;;3.72;3.00;;;;;18.20;98037.00;;;;5094225;28;20048;-65
2023/07/27 06:01:02;;;;;;;8.20;2.80;;;;;18.30;98053.00;;;;5097472;28;20051;-64
2023/07/27 06:03:30;;;;;;;4.82;2.95;;;;;18.20;98047.00;;;;5106118;28;20044;-65
2023/07/27 06:05:57;;;;;;;9.52;3.05;;;;;18.20;98042.00;;;;5106559;28;20109;-65
2023/07/27 06:08:24;;;;;;;4.97;2.95;;;;;18.20;98040.00;;;;5098290;28;20630;-65
2023/07/27 06:11:07;;;;;;;6.30;2.70;;;;;18.20;98044.00;;;;5098326;28;20040;-65
2023/07/27 06:13:34;;;;;;;4.25;2.92;;;;;18.20;98044.00;;;;5099525;28;20094;-66
2023/07/27 06:16:01;;;;;;;5.10;2.40;;;;;18.10;98047.00;;;;5098287;28;20576;-65
2023/07/27 06:18:28;;;;;;;5.13;3.42;;;;;18.00;98053.00;;;;5098792;28;20129;-67
2023/07/27 06:20:55;;;;;;;6.75;2.25;;;;;18.00;98046.00;;;;5098368;28;20036;-66
2023/07/27 06:23:21;;;;;;;4.80;2.70;;;;;18.00;98040.00;;;;5111957;28;20047;-66
2023/07/27 06:25:49;;;;;;;4.57;3.17;;;;;18.00;98042.00;;;;5111770;28;20040;-64
2023/07/27 06:28:16;;;;;;;4.72;3.47;;;;;18.00;98038.00;;;;5108376;28;20048;-66
2023/07/27 06:30:43;;;;;;;6.10;3.22;;;;;18.00;98041.00;;;;5104591;28;20051;-66
2023/07/27 06:33:09;;;;;;;6.13;3.15;;;;;18.00;98044.00;;;;5101849;28;20060;-67
2023/07/27 06:35:36;;;;;;;4.35;2.78;;;;;18.00;98044.00;;;;5109022;28;20040;-65
2023/07/27 06:38:02;;;;;;;4.38;3.08;;;;;18.00;98045.00;;;;5117720;28;20490;-66
2023/07/27 06:40:29;;;;;;;4.78;2.65;;;;;18.00;98041.00;;;;5115927;28;20048;-64
2023/07/27 06:42:56;;;;;;;5.82;2.70;;;;;18.00;98046.00;;;;5115508;28;20051;-65
2023/07/27 06:45:23;;;;;;;5.95;2.92;;;;;18.00;98043.00;;;;5116107;28;20031;-65
2023/07/27 06:47:49;;;;;;;4.18;2.65;;;;;18.00;98047.00;;;;5115366;28;20044;-66
2023/07/27 06:50:16;;;;;;;3.05;2.00;;;;;18.00;98039.00;;;;5109701;28;20040;-66
2023/07/27 06:52:43;;;;;;;3.28;2.13;;;;;18.10;98034.00;;;;5103309;28;20056;-66
2023/07/27 06:55:10;;;;;;;4.18;2.60;;;;;18.10;98038.00;;;;5103417;28;20428;-66
2023/07/27 06:57:37;;;;;;;5.53;3.20;;;;;18.10;98025.00;;;;5102439;28;20051;-65
2023/07/27 07:00:06;;;;;;;5.55;2.80;;;;;18.10;98022.00;;;;5103298;28;20044;-66
2023/07/27 07:02:32;;;;;;;3.80;2.50;;;;;18.20;98022.00;;;;5104528;28;20071;-66
2023/07/27 07:04:59;;;;;;;3.72;2.50;;;;;18.20;98023.00;;;;5102503;28;20048;-65
2023/07/27 07:07:26;;;;;;;3.80;2.30;;;;;18.10;98030.00;;;;5100784;28;20068;-66
2023/07/27 07:09:52;;;;;;;4.75;2.50;;;;;18.10;98014.00;;;;5100185;28;20039;-65
2023/07/27 07:12:19;;;;;;;5.10;2.60;;;;;18.10;98008.00;;;;5100533;28;20051;-65
2023/07/27 07:14:45;;;;;;;4.00;2.28;;;;;18.20;98006.00;;;;5101119;28;20127;-65
2023/07/27 07:17:12;;;;;;;3.83;2.30;;;;;18.20;98006.00;;;;5099443;28;20052;-65
2023/07/27 07:19:39;;;;;;;4.60;2.40;;;;;18.10;97990.00;;;;5100471;28;20044;-65
2023/07/27 07:22:05;;;;;;;3.10;2.15;;;;;18.00;97993.00;;;;5098482;28;20096;-65
2023/07/27 07:24:32;;;;;;;3.40;2.17;;;;;17.90;97993.00;;;;5097908;28;20111;-65
2023/07/27 07:26:59;;;;;;;4.22;2.63;;;;;17.90;98000.00;;;;5099608;28;20126;-62
2023/07/27 07:29:26;;;;;;;4.25;2.67;;;;;17.90;98002.00;;;;5098337;28;20046;-64
2023/07/27 07:31:53;;;;;;;3.10;2.30;;;;;17.90;98001.00;;;;5098926;28;20097;-63
2023/07/27 07:34:20;;;;;;;5.35;2.85;;;;;17.80;97999.00;;;;5097871;28;20044;-63
2023/07/27 07:36:47;;;;;;;5.18;2.72;;;;;17.70;97999.00;;;;5098467;28;20141;-63
2023/07/27 07:39:14;;;;;;;4.95;2.83;;;;;17.60;98013.00;;;;5097359;28;20119;-64
2023/07/27 07:41:41;;;;;;;5.38;2.80;;;;;17.60;98011.00;;;;5097259;28;20036;-63
2023/07/27 07:44:07;;;;;;;3.33;2.40;;;;;17.50;98010.00;;;;5097945;28;20063;-63
2023/07/27 07:46:34;;;;;;;4.00;2.08;;;;;17.60;98002.00;;;;5097186;28;20126;-64
2023/07/27 07:49:01;;;;;;;3.60;2.45;;;;;17.60;97994.00;;;;5097569;28;20058;-63
2023/07/27 07:51:27;;;;;;;4.40;2.80;;;;;17.50;97988.00;;;;5094179;28;20048;-64
2023/07/27 07:53:54;;;;;;;4.88;2.90;;;;;17.50;97990.00;;;;5095261;28;20127;-63
2023/07/27 07:56:21;;;;;;;3.70;2.50;;;;;17.50;98002.00;;;;5095268;28;20474;-63
2023/07/27 07:58:47;;;;;;;6.25;3.65;;;;;17.50;97999.00;;;;5095519;28;20036;-64
2023/07/27 08:01:14;;;;;;;6.57;2.80;;;;;17.40;98003.00;;;;5077069;28;20068;-64
2023/07/27 08:03:41;;;;;;;5.82;2.67;;;;;17.40;98000.00;;;;5095119;28;20044;-65
2023/07/27 08:06:11;;;;;;;4.47;2.67;;;;;17.50;98008.00;;;;5094891;28;20125;-64
2023/07/27 08:08:37;;;;;;;4.57;2.80;;;;;17.40;97999.00;;;;5094711;28;20127;-64
2023/07/27 08:11:04;;;;;;;4.30;2.88;;;;;17.40;97984.00;;;;5094473;28;20048;-64
2023/07/27 08:13:31;;;;;;;4.97;3.03;;;;;17.50;97954.00;;;;5094609;28;20052;-64
2023/07/27 08:15:58;;;;;;;4.30;3.03;;;;;17.70;97935.00;;;;5094650;28;20043;-64
2023/07/27 08:18:25;;;;;;;4.40;2.80;;;;;18.00;97934.00;;;;5092911;28;20087;-63
2023/07/27 08:21:04;;;;;;;3.67;2.25;;;;;18.30;97937.00;;;;5094099;28;20451;-63
2023/07/27 08:23:31;;;;;;;4.03;2.40;;;;;18.50;97920.00;;;;5093701;28;20127;-65
2023/07/27 08:26:00;;;;;;;4.90;2.58;;;;;18.70;97920.00;;;;5094175;28;20036;-64
2023/07/27 08:28:27;;;;;;;3.60;2.65;;;;;18.90;97936.00;;;;5093166;28;20044;-65
2023/07/27 08:30:53;;;;;;;3.88;2.90;;;;;18.90;97931.00;;;;5094700;28;20044;-65
2023/07/27 08:33:20;;;;;;;4.20;3.00;;;;;18.90;97929.00;;;;5093120;28;20048;-65
2023/07/27 08:35:47;;;;;;;4.30;2.30;;;;;18.80;97944.00;;;;5094535;28;20040;-65
2023/07/27 08:38:13;;;;;;;4.88;3.00;;;;;18.80;97931.00;;;;5093905;28;20504;-64
2023/07/27 08:40:40;;;;;;;7.53;3.05;;;;;18.70;97940.00;;;;5093895;28;20079;-63
2023/07/27 08:43:08;;;;;;;3.50;2.90;;;;;18.80;97927.00;;;;5093578;28;20134;-63
2023/07/27 08:45:36;;;;;;;7.13;3.40;;;;;18.90;97934.00;;;;5093397;28;20051;-64
2023/07/27 08:48:03;;;;;;;4.15;3.00;;;;;18.90;97936.00;;;;5093439;28;20039;-64
2023/07/27 08:50:31;;;;;;;4.97;3.20;;;;;19.00;97932.00;;;;5092995;28;20047;-64
2023/07/27 08:52:58;;;;;;;3.67;2.83;;;;;19.20;97932.00;;;;5093095;28;20040;-63
2023/07/27 08:55:24;;;;;;;6.47;3.78;;;;;19.30;97939.00;;;;5093294;28;20132;-64
2023/07/27 08:57:51;;;;;;;6.15;3.42;;;;;19.40;97923.00;;;;5093335;28;20465;-65
2023/07/27 09:00:18;;;;;;;4.50;3.05;;;;;19.50;97923.00;;;;5093109;28;20056;-64
2023/07/27 09:02:45;;;;;;;9.18;3.58;;;;;19.50;97918.00;;;;5092222;28;20131;-64
2023/07/27 09:05:15;;;;;;;7.40;3.70;;;;;19.60;97921.00;;;;5093062;28;20051;-64
2023/07/27 09:07:42;;;;;;;4.85;3.08;;;;;19.60;97926.00;;;;5093214;28;20044;-65
2023/07/27 09:10:09;;;;;;;3.88;3.45;;;;;19.50;97921.00;;;;5093467;28;20372;-65
2023/07/27 09:12:36;;;;;;;5.28;3.42;;;;;19.60;97916.00;;;;5093055;28;20122;-65
2023/07/27 09:15:12;;;;;;;4.18;2.88;;;;;19.70;97940.00;;;;5093955;28;20516;-66
2023/07/27 09:17:39;;;;;;;4.72;2.65;;;;;19.70;97941.00;;;;5094349;28;20054;-65
2023/07/27 09:20:12;;;;;;;5.35;3.03;;;;;19.60;97935.00;;;;5094180;28;20075;-65
2023/07/27 09:22:38;;;;;;;3.00;2.70;;;;;19.60;97922.00;;;;5094047;28;20040;-65
2023/07/27 09:25:07;;;;;;;3.60;2.90;;;;;19.50;97937.00;;;;5092805;28;20074;-66
2023/07/27 09:27:44;;;;;;;3.75;2.50;;;;;19.40;97931.00;;;;5093976;28;20044;-65
2023/07/27 09:30:11;;;;;;;7.35;3.40;;;;;19.30;97930.00;;;;5093307;28;20056;-64
2023/07/27 09:32:38;;;;;;;5.72;2.75;;;;;19.40;97926.00;;;;5093354;28;20042;-65
2023/07/27 09:35:06;;;;;;;3.15;2.78;;;;;19.40;97932.00;;;;5091636;28;20122;-65
2023/07/27 09:37:33;;;;;;;5.18;3.33;;;;;19.50;97922.00;;;;5093835;28;20055;-64
2023/07/27 09:40:08;;;;;;;3.55;2.67;;;;;19.50;97919.00;;;;5092537;28;20127;-65
2023/07/27 09:42:35;;;;;;;5.22;2.90;;;;;19.50;97924.00;;;;5093105;28;20040;-65
2023/07/27 09:45:01;;;;;;;4.65;2.78;;;;;19.40;97927.00;;;;5094164;28;20040;-65
2023/07/27 09:47:31;;;;;;;3.65;2.72;;;;;19.40;97919.00;;;;5093269;28;20505;-65
2023/07/27 09:50:00;;;;;;;2.83;2.38;;;;;19.30;97915.00;;;;5095603;28;20132;-66
2023/07/27 09:52:28;;;;;;;4.32;2.92;;;;;19.30;97923.00;;;;5098364;28;20059;-64
2023/07/27 09:54:56;;;;;;;3.05;2.70;;;;;19.40;97913.00;;;;5097790;28;20078;-63
2023/07/27 09:57:24;;;;;;;4.60;2.42;;;;;19.40;97916.00;;;;5098242;28;20055;-63
2023/07/27 09:59:51;;;;;;;3.50;2.47;;;;;19.50;97910.00;;;;5096580;28;20078;-64
2023/07/27 10:02:20;;;;;;;3.03;2.28;;;;;19.80;97917.00;;;;5092390;28;20055;-64
2023/07/27 10:04:57;;;;;;;2.67;2.42;;;;;19.80;97910.00;;;;5094306;28;20043;-63
2023/07/27 10:07:26;;;;;;;3.25;2.53;;;;;19.80;97917.00;;;;5093389;28;20119;-63
2023/07/27 10:10:25;;;;;;;4.63;2.83;;;;;19.80;97903.00;;;;5093237;28;20040;-63
2023/07/27 10:12:54;;;;;;;4.07;2.55;;;;;19.80;97916.00;;;;5093213;28;20040;-63
2023/07/27 10:15:25;;;;;;;5.63;2.55;;;;;19.80;97911.00;;;;5094264;28;20044;-64
2023/07/27 10:17:56;;;;;;;5.65;4.18;;;;;19.80;97907.00;;;;5093064;28;20083;-64
2023/07/27 10:20:29;;;;;;;9.77;5.20;;;;;19.80;97915.00;;;;5092504;28;20523;-64
2023/07/27 10:23:16;;;;;;;8.95;4.00;;;;;19.90;97905.00;;;;5092299;28;20039;-63
2023/07/27 10:25:52;;;;;;;3.65;3.10;;;;;19.80;97908.00;;;;5092284;28;20555;-63
2023/07/27 10:28:32;;;;;;;5.13;2.97;;;;;19.70;97909.00;;;;5090916;28;20079;-63
2023/07/27 10:31:15;;;;;;;6.75;3.38;;;;;19.80;97906.00;;;;5091870;28;20072;-64
2023/07/27 10:33:48;;;;;;;4.67;3.23;;;;;19.80;97905.00;;;;5091962;28;20055;-63
2023/07/27 10:36:16;;;;;;;4.25;3.10;;;;;19.80;97910.00;;;;5091772;28;20055;-63
2023/07/27 10:38:56;;;;;;;4.82;3.10;;;;;19.80;97915.00;;;;5091843;28;20119;-63
2023/07/27 10:41:25;;;;;;;3.28;2.85;;;;;19.70;97915.00;;;;5091407;28;20081;-63
2023/07/27 10:44:07;;;;;;;4.18;2.92;;;;;19.70;97897.00;;;;5091861;28;20040;-63
2023/07/27 10:46:38;;;;;;;3.85;3.20;;;;;19.60;97905.00;;;;5094643;28;20132;-63
2023/07/27 10:49:09;;;;;;;4.50;3.03;;;;;19.60;97912.00;;;;5094755;28;20048;-63
2023/07/27 10:51:37;;;;;;;2.97;2.67;;;;;19.60;97900.00;;;;5094852;28;20036;-63
2023/07/27 10:54:03;;;;;;;3.90;2.95;;;;;19.70;97901.00;;;;5095199;28;20044;-64
2023/07/27 10:56:34;;;;;;;5.47;3.53;;;;;19.70;97905.00;;;;5094822;28;20431;-64
2023/07/27 10:59:02;;;;;;;4.88;2.60;;;;;19.70;97901.00;;;;5095147;28;20043;-63
2023/07/27 11:01:33;;;;;;;5.05;2.85;;;;;19.70;97909.00;;;;5094665;28;20450;-63
2023/07/27 11:04:00;;;;;;;4.25;2.92;;;;;19.70;97901.00;;;;5094875;28;20496;-64
2023/07/27 11:06:28;;;;;;;3.83;3.30;;;;;19.60;97897.00;;;;5094927;28;20127;-64
2023/07/27 11:08:58;;;;;;;2.85;2.65;;;;;19.60;97899.00;;;;5094638;28;20423;-63
2023/07/27 11:11:26;;;;;;;3.53;2.60;;;;;19.60;97901.00;;;;5094544;28;20048;-63
2023/07/27 11:13:53;;;;;;;3.05;2.47;;;;;19.60;97902.00;;;;5094569;28;20044;-63
2023/07/27 11:16:20;;;;;;;3.40;3.05;;;;;19.60;97898.00;;;;5094755;28;20044;-64
2023/07/27 11:18:47;;;;;;;5.40;3.35;;;;;19.80;97895.00;;;;5094830;28;20044;-63
2023/07/27 11:21:15;;;;;;;2.63;2.42;;;;;19.80;97882.00;;;;5094418;28;20119;-64
2023/07/27 11:23:48;;;;;;;3.78;2.65;;;;;19.90;97886.00;;;;5093225;28;20139;-62
2023/07/27 11:26:16;;;;;;;4.43;3.15;;;;;19.90;97880.00;;;;5094741;28;20123;-62
2023/07/27 11:28:42;;;;;;;5.15;2.80;;;;;20.00;97876.00;;;;5094464;28;20484;-62
2023/07/27 11:31:09;;;;;;;4.05;2.55;;;;;20.00;97870.00;;;;5094287;28;20039;-64
2023/07/27 11:33:36;;;;;;;3.47;2.80;;;;;19.90;97875.00;;;;5094311;28;20044;-63
2023/07/27 11:36:07;;;;;;;4.68;2.17;;;;;19.90;97874.00;;;;5094296;28;20072;-64
2023/07/27 11:38:33;;;;;;;3.03;2.72;;;;;19.80;97870.00;;;;5094332;28;20076;-64
2023/07/27 11:41:00;;;;;;;2.75;2.55;;;;;19.90;97864.00;;;;5093779;28;20131;-64
2023/07/27 11:43:51;;;;;;;2.83;2.25;;;;;20.00;97873.00;;;;5093919;28;20040;-65
2023/07/27 11:46:18;;;;;;;3.42;2.17;;;;;20.10;97861.00;;;;5092973;28;20044;-64
2023/07/27 11:48:46;;;;;;;5.15;2.40;;;;;20.10;97874.00;;;;5094060;28;20052;-64
2023/07/27 11:51:26;;;;;;;2.83;1.92;;;;;20.20;97873.00;;;;5093806;28;20047;-65
2023/07/27 11:53:53;;;;;;;3.08;2.15;;;;;20.20;97882.00;;;;5094022;28;20066;-64
2023/07/27 11:56:19;;;;;;;3.00;2.30;;;;;20.20;97874.00;;;;5093823;28;20441;-64
2023/07/27 11:58:46;;;;;;;3.65;2.25;;;;;20.30;97883.00;;;;5093492;28;20462;-64
2023/07/27 12:01:13;;;;;;;3.50;2.50;;;;;20.30;97891.00;;;;5093874;28;20046;-65
2023/07/27 12:03:40;;;;;;;2.58;2.22;;;;;20.30;97888.00;;;;5075777;28;20050;-65
2023/07/27 12:06:11;;;;;;;6.22;2.55;;;;;20.30;97882.00;;;;5093768;28;20127;-63
2023/07/27 12:08:39;;;;;;;2.70;2.30;;;;;20.40;97883.00;;;;5092482;28;20044;-64
2023/07/27 12:11:09;;;;;;;3.00;2.40;;;;;20.50;97885.00;;;;5093792;28;20131;-64
2023/07/27 12:13:55;;;;;;;3.17;1.98;;;;;20.60;97881.00;;;;5093798;28;20404;-64
2023/07/27 12:16:25;;;;;;;4.47;2.00;;;;;20.70;97875.00;;;;5093841;28;20036;-64
2023/07/27 12:19:12;;;;;;;2.15;1.88;;;;;20.80;97876.00;;;;5093296;28;20471;-64
2023/07/27 12:21:49;;;;;;;2.38;2.00;;;;;20.70;97880.00;;;;5093280;28;20097;-63
2023/07/27 12:24:20;;;;;;;2.63;2.42;;;;;20.60;97883.00;;;;5093633;28;20093;-63
2023/07/27 12:26:49;;;;;;;2.88;2.50;;;;;20.50;97874.00;;;;5093450;28;20036;-63